createdAt,value
2023-03-17T00:01:54.273Z,8.23
2023-03-17T00:04:24.406Z,9.40
2023-03-17T00:06:52.740Z,5.72
2023-03-17T00:09:20.548Z,5.22
2023-03-17T00:11:48.322Z,7.30
2023-03-17T00:14:17.036Z,6.35
2023-03-17T00:16:50.264Z,5.93
2023-03-17T00:19:29.930Z,5.28
2023-03-17T00:21:58.367Z,5.80
2023-03-17T00:24:25.206Z,9.15
2023-03-17T00:26:52.408Z,6.00
2023-03-17T00:29:20.569Z,6.50
2023-03-17T00:31:47.402Z,8.85
2023-03-17T00:34:17.343Z,8.75
2023-03-17T00:36:47.456Z,9.82
2023-03-17T00:41:43.812Z,7.82
2023-03-17T00:44:11.996Z,9.77
2023-03-17T00:46:41.535Z,8.18
2023-03-17T00:49:21.510Z,7.03
2023-03-17T00:51:49.919Z,5.80
2023-03-17T00:54:18.715Z,10.60
2023-03-17T00:56:47.031Z,8.18
2023-03-17T00:59:30.620Z,7.50
2023-03-17T01:01:57.721Z,6.75
2023-03-17T01:04:25.119Z,5.22
2023-03-17T01:06:53.223Z,5.25
2023-03-17T01:09:22.623Z,6.35
2023-03-17T01:11:49.829Z,6.00
2023-03-17T01:14:16.979Z,8.75
2023-03-17T01:16:45.003Z,7.32
2023-03-17T01:19:13.429Z,5.63
2023-03-17T01:21:40.846Z,5.38
2023-03-17T01:24:08.428Z,6.63
2023-03-17T01:26:36.982Z,9.02
2023-03-17T01:29:06.355Z,6.60
2023-03-17T01:31:33.677Z,7.28
2023-03-17T01:34:01.124Z,7.32
2023-03-17T01:36:28.052Z,5.88
2023-03-17T01:38:55.047Z,12.32
2023-03-17T01:41:22.199Z,6.32
2023-03-17T01:43:50.016Z,6.03
2023-03-17T01:46:22.158Z,10.75
2023-03-17T01:49:22.517Z,8.18
2023-03-17T01:51:58.977Z,6.03
2023-03-17T01:54:31.708Z,6.20
2023-03-17T01:57:09.327Z,4.65
2023-03-17T01:59:43.946Z,5.20
2023-03-17T02:02:12.922Z,5.93
2023-03-17T02:04:40.472Z,5.55
2023-03-17T02:07:09.001Z,6.97
2023-03-17T02:09:36.630Z,7.05
2023-03-17T02:12:05.385Z,6.85
2023-03-17T02:14:32.299Z,6.40
2023-03-17T02:17:02.333Z,5.38
2023-03-17T02:19:29.443Z,9.60
2023-03-17T02:21:58.266Z,7.13
2023-03-17T02:24:46.013Z,6.72
2023-03-17T02:27:26.309Z,6.88
2023-03-17T02:29:53.508Z,8.05
2023-03-17T02:32:20.550Z,5.30
2023-03-17T02:34:48.690Z,5.97
2023-03-17T02:37:16.803Z,5.10
2023-03-17T02:39:44.258Z,5.10
2023-03-17T02:42:13.131Z,6.13
2023-03-17T02:44:40.631Z,5.93
2023-03-17T02:47:08.726Z,6.13
2023-03-17T02:49:39.168Z,6.75
2023-03-17T02:52:06.618Z,6.63
2023-03-17T02:54:33.663Z,6.75
2023-03-17T02:57:02.301Z,5.30
2023-03-17T02:59:30.682Z,6.72
2023-03-17T03:01:59.316Z,4.82
2023-03-17T03:04:26.553Z,5.85
2023-03-17T03:06:54.441Z,5.93
2023-03-17T03:09:21.642Z,5.38
2023-03-17T03:11:48.693Z,6.55
2023-03-17T03:14:16.265Z,7.60
2023-03-17T03:16:43.648Z,4.25
2023-03-17T03:19:10.807Z,5.13
2023-03-17T03:21:37.849Z,5.93
2023-03-17T03:24:05.710Z,4.65
2023-03-17T03:26:32.967Z,4.70
2023-03-17T03:29:00.170Z,4.80
2023-03-17T03:31:27.827Z,4.88
2023-03-17T03:33:55.028Z,9.45
2023-03-17T03:36:22.536Z,6.85
2023-03-17T03:38:49.839Z,5.63
2023-03-17T03:41:16.785Z,7.13
2023-03-17T03:43:43.644Z,4.30
2023-03-17T03:46:10.875Z,8.00
2023-03-17T03:48:37.721Z,5.55
2023-03-17T03:51:04.697Z,8.38
2023-03-17T03:53:31.712Z,4.25
2023-03-17T03:55:58.763Z,6.18
2023-03-17T03:58:25.961Z,6.20
2023-03-17T04:00:52.795Z,4.53
2023-03-17T04:03:19.748Z,8.50
2023-03-17T04:05:46.605Z,5.30
2023-03-17T04:08:13.538Z,4.70
2023-03-17T04:10:40.330Z,5.38
2023-03-17T04:13:08.545Z,6.68
2023-03-17T04:15:36.373Z,4.53
2023-03-17T04:18:03.367Z,4.28
2023-03-17T04:20:30.362Z,6.45
2023-03-17T04:22:57.419Z,6.03
2023-03-17T04:25:24.718Z,6.50
2023-03-17T04:27:51.810Z,6.28
2023-03-17T04:30:19.272Z,6.82
2023-03-17T04:32:46.574Z,4.57
2023-03-17T04:35:15.934Z,5.82
2023-03-17T04:37:42.819Z,4.13
2023-03-17T04:40:14.480Z,6.25
2023-03-17T04:42:42.591Z,4.43
2023-03-17T04:45:12.151Z,6.35
2023-03-17T04:47:39.485Z,5.72
2023-03-17T04:50:08.143Z,7.47
2023-03-17T04:52:36.524Z,5.72
2023-03-17T04:55:05.467Z,5.63
2023-03-17T04:57:34.867Z,5.25
2023-03-17T05:00:01.666Z,4.97
2023-03-17T05:02:30.035Z,3.72
2023-03-17T05:04:57.864Z,6.93
2023-03-17T05:07:25.107Z,6.50
2023-03-17T05:09:51.924Z,6.70
2023-03-17T05:12:21.093Z,7.28
2023-03-17T05:14:47.928Z,5.82
2023-03-17T05:17:14.831Z,6.15
2023-03-17T05:19:41.764Z,4.78
2023-03-17T05:22:08.879Z,5.45
2023-03-17T05:24:35.824Z,5.30
2023-03-17T05:27:02.770Z,5.03
2023-03-17T05:29:30.097Z,6.75
2023-03-17T05:31:56.917Z,5.60
2023-03-17T05:34:23.915Z,5.13
2023-03-17T05:36:50.741Z,5.82
2023-03-17T05:39:17.701Z,9.00
2023-03-17T05:41:44.566Z,6.65
2023-03-17T05:44:11.418Z,6.45
2023-03-17T05:46:38.431Z,4.88
2023-03-17T05:49:05.322Z,4.57
2023-03-17T05:51:32.423Z,5.38
2023-03-17T05:53:59.539Z,6.00
2023-03-17T05:56:33.727Z,6.25
2023-03-17T05:59:01.856Z,8.15
2023-03-17T06:01:29.799Z,5.28
2023-03-17T06:03:56.916Z,4.43
2023-03-17T06:06:24.930Z,8.77
2023-03-17T06:08:52.412Z,5.60
2023-03-17T06:11:22.533Z,5.93
2023-03-17T06:13:49.657Z,7.00
2023-03-17T06:16:16.984Z,8.65
2023-03-17T06:18:45.415Z,6.57
2023-03-17T06:21:15.788Z,6.88
2023-03-17T06:23:43.717Z,4.85
2023-03-17T06:26:11.035Z,6.55
2023-03-17T06:28:37.829Z,7.90
2023-03-17T06:31:07.236Z,8.23
2023-03-17T06:33:35.074Z,6.80
2023-03-17T06:36:01.940Z,7.20
2023-03-17T06:38:28.812Z,6.07
2023-03-17T06:40:55.757Z,5.90
2023-03-17T06:43:24.949Z,6.05
2023-03-17T06:45:52.973Z,6.50
2023-03-17T06:48:20.276Z,8.32
2023-03-17T06:50:51.374Z,6.15
2023-03-17T06:53:18.515Z,7.47
2023-03-17T06:55:47.151Z,6.47
2023-03-17T06:58:16.143Z,8.23
2023-03-17T07:00:45.732Z,6.28
2023-03-17T07:03:12.992Z,6.93
2023-03-17T07:05:40.326Z,8.63
2023-03-17T07:08:08.022Z,9.82
2023-03-17T07:10:35.517Z,7.35
2023-03-17T07:13:02.514Z,8.73
2023-03-17T07:15:32.121Z,6.90
2023-03-17T07:17:59.546Z,7.85
2023-03-17T07:20:26.644Z,6.07
2023-03-17T07:22:54.614Z,6.03
2023-03-17T07:25:22.840Z,7.00
2023-03-17T07:27:50.343Z,11.23
2023-03-17T07:30:19.574Z,9.57
2023-03-17T07:32:47.736Z,10.25
2023-03-17T07:35:16.625Z,14.50
2023-03-17T07:37:44.371Z,6.75
2023-03-17T07:40:11.757Z,7.72
2023-03-17T07:42:38.760Z,7.72
2023-03-17T07:45:06.240Z,8.07
2023-03-17T07:47:33.429Z,8.07
2023-03-17T07:50:00.468Z,6.82
2023-03-17T07:52:27.312Z,7.65
2023-03-17T07:54:54.596Z,9.90
2023-03-17T07:57:22.357Z,5.97
2023-03-17T07:59:49.895Z,7.13
2023-03-17T08:02:18.259Z,9.35
2023-03-17T08:04:45.777Z,7.72
2023-03-17T08:07:13.082Z,13.45
2023-03-17T08:09:40.047Z,10.52
2023-03-17T08:12:07.352Z,10.25
2023-03-17T08:14:34.087Z,8.75
2023-03-17T08:17:01.026Z,11.55
2023-03-17T08:19:27.963Z,8.68
2023-03-17T08:21:55.165Z,8.15
2023-03-17T08:24:22.573Z,8.80
2023-03-17T08:26:50.132Z,6.90
2023-03-17T08:29:17.109Z,10.13
2023-03-17T08:31:46.734Z,6.78
2023-03-17T08:34:14.349Z,8.18
2023-03-17T08:36:42.491Z,7.25
2023-03-17T08:39:10.529Z,6.53
2023-03-17T08:41:38.817Z,5.50
2023-03-17T08:44:05.772Z,8.95
2023-03-17T08:46:36.569Z,7.82
2023-03-17T08:49:03.633Z,8.38
2023-03-17T08:51:32.507Z,5.57
2023-03-17T08:53:59.987Z,6.40
2023-03-17T08:56:27.801Z,7.55
2023-03-17T08:58:54.823Z,9.52
2023-03-17T09:01:23.140Z,10.18
2023-03-17T09:03:56.042Z,13.32
2023-03-17T09:06:23.837Z,11.07
2023-03-17T09:08:55.414Z,7.47
2023-03-17T09:11:26.242Z,6.55
2023-03-17T09:13:53.790Z,6.57
2023-03-17T09:16:21.021Z,6.28
2023-03-17T09:18:47.926Z,7.15
2023-03-17T09:21:15.694Z,8.55
2023-03-17T09:23:44.586Z,6.53
2023-03-17T09:26:13.073Z,15.30
2023-03-17T09:28:40.181Z,7.63
2023-03-17T09:31:11.449Z,8.60
2023-03-17T09:33:40.705Z,11.97
2023-03-17T09:36:08.838Z,9.43
2023-03-17T09:38:36.277Z,13.00
2023-03-17T09:41:51.164Z,8.77
2023-03-17T09:44:39.845Z,7.70
2023-03-17T09:47:37.688Z,14.32
2023-03-17T09:50:19.533Z,8.02
2023-03-17T09:52:46.632Z,10.48
2023-03-17T09:55:31.403Z,8.57
2023-03-17T09:58:00.801Z,8.90
2023-03-17T10:00:30.159Z,9.45
2023-03-17T10:02:58.655Z,10.00
2023-03-17T10:05:26.247Z,7.45
2023-03-17T10:08:28.926Z,7.65
2023-03-17T10:11:26.744Z,10.00
2023-03-17T10:14:43.301Z,10.43
2023-03-17T10:17:46.199Z,14.43
2023-03-17T10:20:13.041Z,11.18
2023-03-17T10:22:58.084Z,10.30
2023-03-17T10:25:34.028Z,8.75
2023-03-17T10:28:18.525Z,6.50
2023-03-17T10:30:46.841Z,8.95
2023-03-17T10:33:16.054Z,12.00
2023-03-17T10:35:44.981Z,7.68
2023-03-17T10:38:20.808Z,9.63
2023-03-17T10:40:59.109Z,9.52
2023-03-17T10:43:36.183Z,12.90
2023-03-17T10:46:06.147Z,10.35
2023-03-17T10:48:38.058Z,7.93
2023-03-17T10:51:09.562Z,8.43
2023-03-17T10:53:44.086Z,12.00
2023-03-17T10:56:22.190Z,8.32
2023-03-17T10:58:50.932Z,8.45
2023-03-17T11:01:38.407Z,7.68
2023-03-17T11:04:34.135Z,6.60
2023-03-17T11:07:10.906Z,8.43
2023-03-17T11:09:38.265Z,7.15
2023-03-17T11:12:25.888Z,7.90
2023-03-17T11:15:00.876Z,8.00
2023-03-17T11:17:56.027Z,8.95
2023-03-17T11:20:46.880Z,7.22
2023-03-17T11:23:35.234Z,6.47
2023-03-17T11:26:33.408Z,11.93
2023-03-17T11:29:33.226Z,8.23
2023-03-17T11:32:13.485Z,8.80
2023-03-17T11:35:03.690Z,8.25
2023-03-17T11:37:58.111Z,10.23
2023-03-17T11:40:33.943Z,9.70
2023-03-17T11:43:28.367Z,7.65
2023-03-17T11:46:28.386Z,9.60
2023-03-17T11:48:55.328Z,10.73
2023-03-17T11:51:33.423Z,8.63
2023-03-17T11:54:25.013Z,8.80
2023-03-17T11:56:54.584Z,10.57
2023-03-17T11:59:24.582Z,6.65
2023-03-17T12:01:59.859Z,9.73
2023-03-17T12:04:34.895Z,11.30
2023-03-17T12:07:27.657Z,12.35
2023-03-17T12:10:09.998Z,10.63
2023-03-17T12:12:43.980Z,10.93
2023-03-17T12:15:19.005Z,8.52
2023-03-17T12:18:02.907Z,9.13
2023-03-17T12:20:52.297Z,9.68
2023-03-17T12:23:29.899Z,10.55
2023-03-17T12:26:12.920Z,9.30
2023-03-17T12:29:00.047Z,11.07
2023-03-17T12:31:37.010Z,9.52
2023-03-17T12:34:31.615Z,11.00
2023-03-17T12:36:58.726Z,11.57
2023-03-17T12:39:32.037Z,10.70
2023-03-17T12:42:17.664Z,13.32
2023-03-17T12:45:15.875Z,12.13
2023-03-17T12:47:54.338Z,9.90
2023-03-17T12:50:32.168Z,11.30
2023-03-17T12:53:08.864Z,10.55
2023-03-17T12:55:37.292Z,11.75
2023-03-17T12:58:26.540Z,13.30
2023-03-17T13:01:02.595Z,11.05
2023-03-17T13:03:32.958Z,11.77
2023-03-17T13:06:08.845Z,10.40
2023-03-17T13:08:40.028Z,7.78
2023-03-17T13:11:19.227Z,9.73
2023-03-17T13:13:48.142Z,9.18
2023-03-17T13:16:34.394Z,7.40
2023-03-17T13:19:22.642Z,10.65
2023-03-17T13:21:52.882Z,13.52
2023-03-17T13:24:23.055Z,10.48
2023-03-17T13:26:55.318Z,13.13
2023-03-17T13:29:45.895Z,8.98
2023-03-17T13:32:15.690Z,9.63
2023-03-17T13:35:02.340Z,10.18
2023-03-17T13:37:35.176Z,9.90
2023-03-17T13:40:14.090Z,7.80
2023-03-17T13:43:09.939Z,12.25
2023-03-17T13:45:41.649Z,13.65
2023-03-17T13:48:40.306Z,10.68
2023-03-17T13:51:15.108Z,11.00
2023-03-17T13:53:47.895Z,11.43
2023-03-17T13:56:23.595Z,10.23
2023-03-17T13:59:05.316Z,13.52
2023-03-17T14:02:01.473Z,10.23
2023-03-17T14:04:58.346Z,9.52
2023-03-17T14:07:30.573Z,12.40
2023-03-17T14:10:01.928Z,10.45
2023-03-17T14:12:42.969Z,10.90
2023-03-17T14:15:33.068Z,10.38
2023-03-17T14:18:13.268Z,11.18
2023-03-17T14:20:51.845Z,10.68
2023-03-17T14:23:18.701Z,11.63
2023-03-17T14:25:45.989Z,9.05
2023-03-17T14:28:17.045Z,12.45
2023-03-17T14:30:56.192Z,14.65
2023-03-17T14:33:29.687Z,12.27
2023-03-17T14:35:59.756Z,9.82
2023-03-17T14:38:30.372Z,13.75
2023-03-17T14:41:06.945Z,13.68
2023-03-17T14:43:35.999Z,13.38
2023-03-17T14:46:05.276Z,11.35
2023-03-17T14:48:35.423Z,11.35
2023-03-17T14:51:23.562Z,12.60
2023-03-17T14:53:53.139Z,14.25
2023-03-17T14:56:31.422Z,14.82
2023-03-17T14:59:07.277Z,11.30
2023-03-17T15:01:43.011Z,9.57
2023-03-17T15:04:17.946Z,9.52
2023-03-17T15:06:53.669Z,11.25
2023-03-17T15:09:39.569Z,12.85
2023-03-17T15:12:21.959Z,10.32
2023-03-17T15:14:53.050Z,11.20
2023-03-17T15:17:32.094Z,12.63
2023-03-17T15:20:04.877Z,14.05
2023-03-17T15:22:34.571Z,11.25
2023-03-17T15:25:07.303Z,9.90
2023-03-17T15:27:34.209Z,9.63
2023-03-17T15:30:03.449Z,10.90
2023-03-17T15:32:31.241Z,12.63
2023-03-17T15:34:58.164Z,10.95
2023-03-17T15:37:27.402Z,9.73
2023-03-17T15:39:56.129Z,11.90
2023-03-17T15:42:32.764Z,10.88
2023-03-17T15:45:03.849Z,12.40
2023-03-17T15:47:36.976Z,11.40
2023-03-17T15:50:16.414Z,11.75
2023-03-17T15:52:43.997Z,13.60
2023-03-17T15:55:21.706Z,11.43
2023-03-17T15:57:54.690Z,11.90
2023-03-17T16:00:25.596Z,15.82
2023-03-17T16:02:57.508Z,14.32
2023-03-17T16:07:53.511Z,14.13
2023-03-17T16:10:26.355Z,14.70
2023-03-17T16:12:53.549Z,17.70
2023-03-17T16:15:24.499Z,15.52
2023-03-17T16:17:55.089Z,14.13
2023-03-17T16:20:26.159Z,15.27
2023-03-17T16:22:55.741Z,14.55
2023-03-17T16:25:28.298Z,14.73
2023-03-17T16:27:57.849Z,11.40
2023-03-17T16:30:27.807Z,13.43
2023-03-17T16:32:57.806Z,13.60
2023-03-17T16:35:25.979Z,16.95
2023-03-17T16:37:56.348Z,16.15
2023-03-17T16:40:28.859Z,18.83
2023-03-17T16:42:55.817Z,18.15
2023-03-17T16:45:30.128Z,16.63
2023-03-17T16:47:57.533Z,15.43
2023-03-17T16:50:28.109Z,15.65
2023-03-17T16:52:56.844Z,20.02
2023-03-17T16:55:25.432Z,14.73
2023-03-17T16:57:55.299Z,16.48
2023-03-17T17:00:25.166Z,14.48
2023-03-17T17:02:52.695Z,16.77
2023-03-17T17:05:25.403Z,22.90
2023-03-17T17:07:56.061Z,17.67
2023-03-17T17:10:25.256Z,14.68
2023-03-17T17:12:52.583Z,16.00
2023-03-17T17:15:21.310Z,16.15
2023-03-17T17:18:01.933Z,20.63
2023-03-17T17:20:33.731Z,18.60
2023-03-17T17:23:02.115Z,15.10
2023-03-17T17:25:29.976Z,15.60
2023-03-17T17:27:58.682Z,16.98
2023-03-17T17:30:33.796Z,12.65
2023-03-17T17:33:01.595Z,16.05
2023-03-17T17:35:32.693Z,13.15
2023-03-17T17:38:02.281Z,14.83
2023-03-17T17:40:30.583Z,12.55
2023-03-17T17:42:58.168Z,12.18
2023-03-17T17:45:26.400Z,13.18
2023-03-17T17:47:53.342Z,13.48
2023-03-17T17:50:25.698Z,18.27
2023-03-17T17:52:53.267Z,12.07
2023-03-17T17:55:20.816Z,12.07
2023-03-17T17:57:47.983Z,11.05
2023-03-17T18:00:17.469Z,9.85
2023-03-17T18:02:44.889Z,11.35
2023-03-17T18:05:12.775Z,16.90
2023-03-17T18:07:40.630Z,24.05
2023-03-17T18:10:08.371Z,13.50
2023-03-17T18:12:35.153Z,14.23
2023-03-17T18:15:01.975Z,14.75
2023-03-17T18:17:31.947Z,15.35
2023-03-17T18:19:59.391Z,18.65
2023-03-17T18:22:26.234Z,13.73
2023-03-17T18:24:53.272Z,13.27
2023-03-17T18:27:20.207Z,13.27
2023-03-17T18:29:48.590Z,13.57
2023-03-17T18:32:15.951Z,13.40
2023-03-17T18:34:45.986Z,15.65
2023-03-17T18:37:15.497Z,16.70
2023-03-17T18:39:42.802Z,17.15
2023-03-17T18:42:09.807Z,17.52
2023-03-17T18:44:37.267Z,18.40
2023-03-17T18:47:04.289Z,16.50
2023-03-17T18:49:31.192Z,19.17
2023-03-17T18:51:59.466Z,15.55
2023-03-17T18:54:30.037Z,19.58
2023-03-17T18:56:57.037Z,24.73
2023-03-17T18:59:24.341Z,24.75
2023-03-17T19:01:51.264Z,27.23
2023-03-17T19:04:18.076Z,21.45
2023-03-17T19:06:45.028Z,19.02
2023-03-17T19:09:12.874Z,20.48
2023-03-17T19:11:39.832Z,20.73
2023-03-17T19:14:07.579Z,19.10
2023-03-17T19:16:35.264Z,20.55
2023-03-17T19:19:02.687Z,17.88
2023-03-17T19:21:29.620Z,19.45
2023-03-17T19:24:00.059Z,15.70
2023-03-17T19:26:27.769Z,17.30
2023-03-17T19:28:56.230Z,16.92
2023-03-17T19:31:25.161Z,17.42
2023-03-17T19:33:52.335Z,23.67
2023-03-17T19:36:19.222Z,17.20
2023-03-17T19:38:46.540Z,18.27
2023-03-17T19:41:15.454Z,15.85
2023-03-17T19:43:42.638Z,14.70
2023-03-17T19:46:11.454Z,18.70
2023-03-17T19:48:42.050Z,20.13
2023-03-17T19:51:09.410Z,20.05
2023-03-17T19:53:37.609Z,15.60
2023-03-17T19:56:04.917Z,18.00
2023-03-17T19:58:31.915Z,15.35
2023-03-17T20:00:58.624Z,14.38
2023-03-17T20:03:26.990Z,13.77
2023-03-17T20:05:54.394Z,11.55
2023-03-17T20:08:22.498Z,12.18
2023-03-17T20:10:53.916Z,12.00
2023-03-17T20:13:22.023Z,13.77
2023-03-17T20:15:50.182Z,10.40
2023-03-17T20:18:18.643Z,11.93
2023-03-17T20:20:49.528Z,12.75
2023-03-17T20:23:17.493Z,10.95
2023-03-17T20:25:44.790Z,12.45
2023-03-17T20:28:12.871Z,12.55
2023-03-17T20:30:40.021Z,19.13
2023-03-17T20:33:08.425Z,15.55
2023-03-17T20:35:35.693Z,15.40
2023-03-17T20:38:03.208Z,14.68
2023-03-17T20:40:30.353Z,14.25
2023-03-17T20:42:57.215Z,14.73
2023-03-17T20:45:24.434Z,15.88
2023-03-17T20:47:51.252Z,13.70
2023-03-17T20:50:18.448Z,12.98
2023-03-17T20:52:45.399Z,16.23
2023-03-17T20:55:14.033Z,14.10
2023-03-17T20:57:45.751Z,11.43
2023-03-17T21:00:16.457Z,18.30
2023-03-17T21:02:44.485Z,15.88
2023-03-17T21:05:15.860Z,13.00
2023-03-17T21:07:43.572Z,13.47
2023-03-17T21:10:10.867Z,14.80
2023-03-17T21:12:38.724Z,15.60
2023-03-17T21:15:07.993Z,13.52
2023-03-17T21:17:34.988Z,15.30
2023-03-17T21:20:02.570Z,16.35
2023-03-17T21:22:31.173Z,14.30
2023-03-17T21:24:58.573Z,12.98
2023-03-17T21:27:25.754Z,13.63
2023-03-17T21:29:53.006Z,14.32
2023-03-17T21:32:19.813Z,15.05
2023-03-17T21:34:47.476Z,14.23
2023-03-17T21:37:16.212Z,13.95
2023-03-17T21:39:43.571Z,14.32
2023-03-17T21:42:12.333Z,13.30
2023-03-17T21:44:41.005Z,13.90
2023-03-17T21:47:08.401Z,15.23
2023-03-17T21:49:35.515Z,15.35
2023-03-17T21:52:02.441Z,14.20
2023-03-17T21:54:30.392Z,12.98
2023-03-17T21:56:57.407Z,14.75
2023-03-17T21:59:24.971Z,18.60
2023-03-17T22:01:53.213Z,17.42
2023-03-17T22:04:20.719Z,13.70
2023-03-17T22:06:47.659Z,13.55
2023-03-17T22:09:16.461Z,14.25
2023-03-17T22:11:44.366Z,13.38
2023-03-17T22:14:13.371Z,12.57
2023-03-17T22:16:40.556Z,12.25
2023-03-17T22:19:09.973Z,13.05
2023-03-17T22:21:37.101Z,15.77
2023-03-17T22:24:04.414Z,12.85
2023-03-17T22:26:31.858Z,18.73
2023-03-17T22:28:59.686Z,15.05
2023-03-17T22:31:28.903Z,17.00
2023-03-17T22:33:57.877Z,14.48
2023-03-17T22:36:26.049Z,11.52
2023-03-17T22:38:53.975Z,16.67
2023-03-17T22:41:24.184Z,12.20
2023-03-17T22:43:51.912Z,15.77
2023-03-17T22:46:19.577Z,14.85
2023-03-17T22:48:47.033Z,17.90
2023-03-17T22:51:18.677Z,19.40
2023-03-17T22:53:45.991Z,17.77
2023-03-17T22:56:14.110Z,15.27
2023-03-17T22:58:41.411Z,18.65
2023-03-17T23:01:09.895Z,17.38
2023-03-17T23:03:37.182Z,15.50
2023-03-17T23:06:06.141Z,19.98
2023-03-17T23:08:35.447Z,15.07
2023-03-17T23:11:08.785Z,17.70
2023-03-17T23:13:35.634Z,24.10
2023-03-17T23:16:04.792Z,18.85
2023-03-17T23:18:35.124Z,17.58
2023-03-17T23:21:03.481Z,17.10
2023-03-17T23:23:31.340Z,16.50
2023-03-17T23:25:58.387Z,21.85
2023-03-17T23:28:26.631Z,16.70
2023-03-17T23:30:54.227Z,12.98
2023-03-17T23:33:22.865Z,19.20
2023-03-17T23:35:51.466Z,16.10
2023-03-17T23:38:21.607Z,16.25
2023-03-17T23:40:49.473Z,22.27
2023-03-17T23:43:16.578Z,20.00
2023-03-17T23:45:44.323Z,22.63
2023-03-17T23:48:12.153Z,19.17
2023-03-17T23:50:41.665Z,19.02
2023-03-17T23:53:12.337Z,15.93
2023-03-17T23:55:40.257Z,17.48
2023-03-17T23:58:07.779Z,18.10
